Time;durP1;ratioP1;P1;durP2;ratioP2;P2;SDS_P1;SDS_P2;PMS_P1;PMS_P2;Temp;Humidity;BMP_temperature;BMP_pressure;BME280_temperature;BME280_humidity;BME280_pressure;Samples;Min_cycle;Max_cycle;Signal;HPM_P1;HPM_P2
2021/05/08 00:01:06;;;;;;;11.55;2.95;;;;;;;2.20;93.37;101722.81;5042677;28;20044;-76
2021/05/08 00:03:33;;;;;;;13.40;3.30;;;;;;;2.20;93.41;101717.66;5043858;28;20169;-76
2021/05/08 00:06:00;;;;;;;13.73;3.50;;;;;;;2.17;94.25;101724.69;5033749;28;20037;-74
2021/05/08 00:08:26;;;;;;;14.57;3.70;;;;;;;2.17;93.96;101722.97;5041341;28;20750;-74
2021/05/08 00:10:52;;;;;;;9.57;3.25;;;;;;;2.19;93.92;101725.50;5032111;28;20052;-75
2021/05/08 00:13:17;;;;;;;12.70;3.90;;;;;;;2.13;93.67;101717.09;5035455;28;20049;-74
2021/05/08 00:15:43;;;;;;;17.42;3.75;;;;;;;2.13;93.65;101727.44;5036923;28;20056;-75
2021/05/08 00:18:09;;;;;;;12.52;3.40;;;;;;;2.13;93.48;101729.22;5036285;28;20045;-75
2021/05/08 00:20:34;;;;;;;15.75;3.40;;;;;;;2.12;93.39;101719.75;5032638;28;20411;-74
2021/05/08 00:23:00;;;;;;;15.57;3.30;;;;;;;2.13;93.52;101721.44;5036951;28;20049;-72
2021/05/08 00:25:25;;;;;;;12.38;3.20;;;;;;;2.05;93.83;101719.16;5036160;28;20062;-74
2021/05/08 00:27:51;;;;;;;12.00;3.50;;;;;;;2.07;93.97;101721.69;5015712;28;20042;-76
2021/05/08 00:30:17;;;;;;;11.65;3.17;;;;;;;2.07;94.07;101724.28;5044574;28;20052;-74
2021/05/08 00:32:43;;;;;;;15.48;3.35;;;;;;;2.03;93.89;101726.16;5019759;28;20041;-75
2021/05/08 00:35:09;;;;;;;14.75;3.42;;;;;;;2.07;94.15;101717.38;5030858;28;20045;-74
2021/05/08 00:37:35;;;;;;;13.63;3.30;;;;;;;2.07;94.18;101714.78;5045258;28;20339;-74
2021/05/08 00:40:03;;;;;;;14.23;3.40;;;;;;;2.03;93.84;101715.81;5030423;28;20041;-74
2021/05/08 00:42:29;;;;;;;11.25;3.50;;;;;;;2.01;93.98;101720.22;5040248;28;20498;-75
2021/05/08 00:44:54;;;;;;;14.90;3.67;;;;;;;1.98;94.44;101712.59;5027516;28;20115;-75
2021/05/08 00:47:20;;;;;;;17.17;3.38;;;;;;;1.98;94.27;101722.94;5034891;28;20045;-75
2021/05/08 00:49:47;;;;;;;15.23;3.55;;;;;;;1.91;94.66;101718.94;5039901;28;20051;-75
2021/05/08 00:52:14;;;;;;;16.23;3.50;;;;;;;1.86;94.85;101713.94;5034964;28;20053;-74
2021/05/08 00:54:40;;;;;;;9.70;3.33;;;;;;;1.84;94.74;101709.75;5034743;28;20094;-74
2021/05/08 00:57:06;;;;;;;14.23;3.17;;;;;;;1.81;95.11;101704.72;5030733;28;20045;-74
2021/05/08 00:59:32;;;;;;;15.52;4.30;;;;;;;1.78;95.03;101705.69;5029520;28;20080;-75
2021/05/08 01:01:57;;;;;;;17.13;3.47;;;;;;;1.76;95.39;101704.91;5011027;28;20037;-75
2021/05/08 01:04:25;;;;;;;13.43;3.80;;;;;;;1.73;95.08;101702.44;5026843;28;20144;-74
2021/05/08 01:06:53;;;;;;;15.48;3.90;;;;;;;1.74;95.20;101701.56;5035517;28;20503;-75
2021/05/08 01:09:19;;;;;;;12.45;3.35;;;;;;;1.74;95.20;101706.72;5035175;28;20048;-75
2021/05/08 01:11:45;;;;;;;11.32;3.47;;;;;;;1.77;95.25;101711.75;5026297;28;20033;-75
2021/05/08 01:14:10;;;;;;;14.23;3.67;;;;;;;1.73;95.43;101711.06;5042934;28;20374;-74
2021/05/08 01:16:37;;;;;;;14.52;3.60;;;;;;;1.75;95.15;101713.56;5038594;28;20091;-74
2021/05/08 01:19:03;;;;;;;18.67;4.13;;;;;;;1.78;95.32;101718.63;5027151;28;20071;-75
2021/05/08 01:21:30;;;;;;;9.65;3.60;;;;;;;1.75;94.95;101717.03;5042264;28;20064;-74
2021/05/08 01:23:56;;;;;;;13.05;3.67;;;;;;;1.75;94.69;101718.75;5035851;28;20764;-74
2021/05/08 01:26:21;;;;;;;20.67;3.63;;;;;;;1.73;94.91;101724.00;5055504;28;20047;-74
2021/05/08 01:28:48;;;;;;;13.25;3.80;;;;;;;1.69;95.40;101721.59;5039362;28;20042;-75
2021/05/08 01:31:14;;;;;;;17.55;4.22;;;;;;;1.70;95.72;101718.97;5033878;28;20671;-74
2021/05/08 01:33:43;;;;;;;12.75;4.20;;;;;;;1.70;95.18;101718.13;5037782;28;20687;-74
2021/05/08 01:36:09;;;;;;;11.93;4.03;;;;;;;1.72;95.15;101721.47;5043395;28;20044;-73
2021/05/08 01:38:35;;;;;;;11.15;3.47;;;;;;;1.68;95.22;101718.19;5017799;28;20769;-74
2021/05/08 01:41:07;;;;;;;12.15;4.53;;;;;;;1.62;95.36;101731.38;5025542;28;20475;-74
2021/05/08 01:43:33;;;;;;;10.93;3.55;;;;;;;1.64;95.17;101726.13;5042602;28;20075;-75
2021/05/08 01:45:59;;;;;;;11.43;3.70;;;;;;;1.60;95.25;101728.03;5034961;28;20068;-73
2021/05/08 01:48:28;;;;;;;16.70;3.83;;;;;;;1.55;95.53;101735.13;5048231;28;20414;-73
2021/05/08 01:50:54;;;;;;;19.17;4.13;;;;;;;1.52;95.81;101737.81;5044491;28;20045;-74
2021/05/08 01:53:21;;;;;;;12.88;3.63;;;;;;;1.47;95.08;101730.28;5028801;28;20062;-73
2021/05/08 01:55:48;;;;;;;9.95;3.92;;;;;;;1.52;95.69;101735.25;5038380;28;20124;-73
2021/05/08 01:58:19;;;;;;;20.23;4.82;;;;;;;1.54;96.05;101729.13;5036444;28;20045;-73
2021/05/08 02:00:50;;;;;;;12.95;4.35;;;;;;;1.60;95.85;101733.19;5046168;28;20045;-74
2021/05/08 02:03:16;;;;;;;12.65;3.97;;;;;;;1.58;95.72;101734.97;5022742;28;21965;-73
2021/05/08 02:05:45;;;;;;;10.48;3.33;;;;;;;1.51;95.63;101726.66;5037544;28;20494;-73
2021/05/08 02:08:26;;;;;;;11.13;3.38;;;;;;;1.52;95.70;101735.25;5044246;28;20149;-74
2021/05/08 02:10:52;;;;;;;10.50;4.10;;;;;;;1.51;95.52;101731.81;5044039;28;20077;-75
2021/05/08 02:13:17;;;;;;;11.18;3.55;;;;;;;1.51;95.53;101731.81;5043850;28;20040;-74
2021/05/08 02:15:44;;;;;;;15.95;4.20;;;;;;;1.53;95.48;101724.84;5044544;28;20041;-75
2021/05/08 02:18:11;;;;;;;10.13;3.45;;;;;;;1.51;95.37;101738.75;5036459;28;20037;-74
2021/05/08 02:20:40;;;;;;;10.00;3.95;;;;;;;1.50;94.92;101734.47;5036418;28;20165;-74
2021/05/08 02:23:09;;;;;;;12.68;3.83;;;;;;;1.47;95.46;101738.03;5039458;28;20071;-74
2021/05/08 02:25:36;;;;;;;10.60;3.75;;;;;;;1.45;95.01;101737.25;5033942;28;20099;-74
2021/05/08 02:28:03;;;;;;;12.30;3.80;;;;;;;1.37;95.19;101731.53;5046805;28;20047;-74
2021/05/08 02:30:31;;;;;;;8.95;3.72;;;;;;;1.38;95.14;101728.06;5039121;28;20060;-74
2021/05/08 02:32:57;;;;;;;10.48;3.83;;;;;;;1.34;95.29;101726.50;5045927;28;20041;-74
2021/05/08 02:35:25;;;;;;;9.10;3.65;;;;;;;1.30;95.11;101741.31;5045678;28;20044;-73
2021/05/08 02:37:51;;;;;;;13.55;3.97;;;;;;;1.30;95.40;101743.88;5026994;28;20051;-74
2021/05/08 02:40:20;;;;;;;14.32;4.35;;;;;;;1.25;95.95;101742.38;5027451;28;20407;-74
2021/05/08 02:42:46;;;;;;;13.65;4.68;;;;;;;1.22;95.42;101742.50;5043122;28;20053;-74
2021/05/08 02:45:14;;;;;;;8.63;4.03;;;;;;;1.17;95.69;101742.69;5038347;28;20049;-73
2021/05/08 02:47:42;;;;;;;14.70;4.45;;;;;;;1.17;95.96;101746.13;5035979;28;20179;-74
2021/05/08 02:50:11;;;;;;;17.67;4.20;;;;;;;1.11;95.76;101741.22;5025838;28;20037;-73
2021/05/08 02:52:36;;;;;;;12.73;3.90;;;;;;;1.12;96.07;101745.44;5055631;28;20059;-73
2021/05/08 02:55:04;;;;;;;11.93;3.80;;;;;;;1.08;95.88;101754.25;5032285;28;20046;-72
2021/05/08 02:57:30;;;;;;;17.88;4.30;;;;;;;1.05;96.10;101746.59;5028519;28;20738;-75
2021/05/08 02:59:55;;;;;;;16.83;4.45;;;;;;;1.07;96.02;101742.19;5025555;28;20112;-73
2021/05/08 03:02:21;;;;;;;12.88;4.25;;;;;;;1.04;95.86;101749.25;5053454;28;20635;-73
2021/05/08 03:04:47;;;;;;;12.90;3.90;;;;;;;1.01;96.15;101742.44;5031855;28;20515;-73
2021/05/08 03:07:12;;;;;;;8.98;3.92;;;;;;;1.02;95.96;101744.16;5042127;28;20041;-72
2021/05/08 03:09:38;;;;;;;14.20;4.07;;;;;;;1.06;96.08;101750.03;5032529;28;20716;-73
2021/05/08 03:12:05;;;;;;;17.35;4.15;;;;;;;0.99;95.93;101748.59;5046068;28;20045;-73
2021/05/08 03:14:32;;;;;;;14.30;4.57;;;;;;;1.03;95.66;101744.97;5046708;28;20110;-74
2021/05/08 03:16:58;;;;;;;17.65;4.75;;;;;;;1.08;95.49;101743.06;5037733;28;20581;-75
2021/05/08 03:19:24;;;;;;;13.57;4.78;;;;;;;1.19;96.09;101747.78;5025982;28;20110;-75
2021/05/08 03:21:51;;;;;;;24.08;6.03;;;;;;;1.28;96.65;101744.84;5047874;28;20119;-75
2021/05/08 03:24:17;;;;;;;19.48;5.40;;;;;;;1.34;96.69;101739.44;5034201;28;20045;-75
2021/05/08 03:26:42;;;;;;;14.13;5.75;;;;;;;1.36;97.01;101735.88;5022202;28;20414;-74
2021/05/08 03:29:08;;;;;;;14.95;5.60;;;;;;;1.22;96.54;101742.50;5046065;28;20051;-75
2021/05/08 03:31:34;;;;;;;13.90;5.25;;;;;;;1.24;96.49;101749.28;5044504;28;20137;-75
2021/05/08 03:34:00;;;;;;;15.55;5.93;;;;;;;1.27;96.30;101748.34;5035527;28;20445;-74
2021/05/08 03:36:26;;;;;;;12.55;4.82;;;;;;;1.16;96.27;101752.19;5046268;28;20041;-75
2021/05/08 03:38:52;;;;;;;13.95;5.22;;;;;;;1.16;96.55;101749.59;5046601;28;20056;-74
2021/05/08 03:41:18;;;;;;;16.38;5.28;;;;;;;1.16;96.16;101735.84;5039818;28;20622;-74
2021/05/08 03:43:44;;;;;;;13.13;5.20;;;;;;;1.21;96.05;101738.25;5021911;28;20466;-74
2021/05/08 03:46:10;;;;;;;14.50;5.80;;;;;;;1.24;95.80;101738.13;5042968;28;20123;-73
2021/05/08 03:48:35;;;;;;;11.50;6.32;;;;;;;1.23;96.03;101732.13;5035903;28;20120;-74
2021/05/08 03:51:01;;;;;;;9.75;5.18;;;;;;;1.17;96.01;101738.38;5039918;23;20041;-78
2021/05/08 03:53:27;;;;;;;8.40;4.57;;;;;;;1.15;96.00;101747.09;5013863;28;20042;-77
2021/05/08 03:55:53;;;;;;;13.98;5.53;;;;;;;1.11;95.93;101748.97;5014812;28;20077;-84
2021/05/08 03:58:22;;;;;;;14.85;4.82;;;;;;;1.09;95.62;101747.31;4996985;28;20046;-82
2021/05/08 04:00:49;;;;;;;14.82;5.13;;;;;;;1.06;95.91;101750.88;4994879;28;20556;-84
2021/05/08 04:03:15;;;;;;;15.43;5.13;;;;;;;1.09;96.20;101748.19;5007762;28;20054;-83
2021/05/08 04:05:40;;;;;;;14.43;4.93;;;;;;;1.10;96.07;101752.44;5029801;28;20036;-79
2021/05/08 04:08:06;;;;;;;11.43;4.88;;;;;;;1.13;95.87;101752.31;4999556;28;20056;-76
2021/05/08 04:10:31;;;;;;;14.80;5.32;;;;;;;1.11;95.93;101750.69;5016369;28;20032;-79
2021/05/08 04:12:57;;;;;;;16.27;6.10;;;;;;;1.16;96.41;101765.09;5045476;28;20042;-78
2021/05/08 04:15:22;;;;;;;12.65;4.90;;;;;;;1.14;95.95;101758.31;5013974;28;20042;-78
2021/05/08 04:17:48;;;;;;;14.45;5.40;;;;;;;1.24;96.23;101753.63;4999509;28;20049;-77
2021/05/08 04:20:14;;;;;;;16.08;5.78;;;;;;;1.31;96.42;101752.47;4990611;28;20046;-84
2021/05/08 04:22:40;;;;;;;14.57;6.07;;;;;;;1.32;96.33;101754.16;4992414;28;20073;-84
2021/05/08 04:25:06;;;;;;;11.63;5.40;;;;;;;1.35;96.69;101760.03;5000409;28;20137;-83
2021/05/08 04:27:32;;;;;;;12.10;5.05;;;;;;;1.39;96.28;101762.50;4995528;28;20080;-85
2021/05/08 04:29:57;;;;;;;12.57;4.47;;;;;;;1.42;96.03;101765.81;5010188;28;20072;-82
2021/05/08 04:32:23;;;;;;;11.65;5.13;;;;;;;1.47;95.52;101763.88;4995119;28;20093;-84
2021/05/08 04:34:48;;;;;;;14.23;5.63;;;;;;;1.62;95.80;101765.00;4995634;28;20046;-81
2021/05/08 04:37:14;;;;;;;17.02;6.93;;;;;;;1.74;96.03;101761.06;5003911;28;20046;-80
2021/05/08 04:39:39;;;;;;;13.13;5.35;;;;;;;1.70;96.13;101764.69;4992447;28;20085;-82
2021/05/08 04:42:05;;;;;;;10.98;4.85;;;;;;;1.74;95.74;101767.06;4993888;28;20615;-82
2021/05/08 04:44:30;;;;;;;16.10;5.55;;;;;;;1.77;96.28;101770.41;4970365;28;20121;-81
2021/05/08 04:46:56;;;;;;;14.95;5.75;;;;;;;1.78;96.43;101766.94;5007817;28;20536;-81
2021/05/08 04:49:22;;;;;;;12.25;5.30;;;;;;;1.88;95.83;101770.81;5000636;28;20428;-80
2021/05/08 04:51:47;;;;;;;17.73;5.38;;;;;;;2.02;95.49;101762.47;5010325;28;20539;-84
2021/05/08 04:54:13;;;;;;;17.92;5.50;;;;;;;2.16;95.55;101773.06;4985909;28;20046;-83
2021/05/08 04:56:38;;;;;;;17.40;5.70;;;;;;;2.32;95.55;101781.00;4994087;28;20042;-81
2021/05/08 04:59:04;;;;;;;14.95;5.55;;;;;;;2.44;95.60;101779.59;4993952;28;20794;-81
2021/05/08 05:01:30;;;;;;;19.55;5.55;;;;;;;2.63;94.52;101783.03;5006642;28;20129;-83
2021/05/08 05:03:57;;;;;;;19.67;5.72;;;;;;;2.71;94.04;101778.38;5012698;28;20042;-82
2021/05/08 05:06:22;;;;;;;18.33;6.18;;;;;;;2.83;93.62;101786.50;4994272;28;20045;-82
2021/05/08 05:08:48;;;;;;;13.00;5.63;;;;;;;2.82;93.93;101780.44;4990587;28;20039;-82
2021/05/08 05:11:15;;;;;;;18.33;5.85;;;;;;;2.82;93.62;101787.38;5008303;28;20092;-82
2021/05/08 05:13:41;;;;;;;16.90;6.60;;;;;;;3.04;93.13;101779.47;4994952;28;20042;-82
2021/05/08 05:16:08;;;;;;;20.40;6.18;;;;;;;3.18;92.95;101782.22;4994662;28;20048;-82
2021/05/08 05:18:34;;;;;;;19.30;6.20;;;;;;;3.36;91.99;101783.09;4978324;28;20044;-83
2021/05/08 05:20:59;;;;;;;17.60;5.55;;;;;;;3.47;91.51;101778.25;4996806;28;20132;-82
2021/05/08 05:23:24;;;;;;;24.55;5.97;;;;;;;3.65;91.61;101788.63;4982160;28;20052;-82
2021/05/08 05:25:50;;;;;;;15.88;6.32;;;;;;;3.72;90.13;101786.56;4979892;28;20509;-81
2021/05/08 05:28:27;;;;;;;17.65;6.20;;;;;;;3.83;90.21;101789.47;5014524;28;20053;-81
2021/05/08 05:30:53;;;;;;;19.27;6.45;;;;;;;4.02;90.33;101790.19;5011336;28;20042;-79
2021/05/08 05:33:19;;;;;;;14.30;5.72;;;;;;;4.13;90.92;101794.03;5027941;28;20061;-80
2021/05/08 05:35:53;;;;;;;16.70;6.40;;;;;;;4.32;89.45;101792.13;4997136;28;20530;-78
2021/05/08 05:38:19;;;;;;;15.45;5.07;;;;;;;4.42;89.50;101797.69;4996674;28;20820;-79
2021/05/08 05:40:45;;;;;;;17.48;5.72;;;;;;;4.58;89.38;101795.13;4992281;28;20053;-77
2021/05/08 05:43:11;;;;;;;18.83;6.15;;;;;;;4.81;88.79;101801.69;5034986;28;20041;-80
2021/05/08 05:45:37;;;;;;;16.73;5.40;;;;;;;4.85;88.72;101804.03;4997798;28;20054;-81
2021/05/08 05:48:04;;;;;;;14.73;5.55;;;;;;;4.95;88.64;101804.34;4994271;28;20501;-79
2021/05/08 05:50:31;;;;;;;14.43;5.90;;;;;;;5.13;88.07;101810.31;4996614;28;20053;-79
2021/05/08 05:52:56;;;;;;;16.17;5.40;;;;;;;5.28;86.34;101808.63;4997571;28;20022;-81
2021/05/08 05:55:25;;;;;;;15.43;5.35;;;;;;;5.35;86.98;101811.72;4996351;28;20041;-80
2021/05/08 05:57:53;;;;;;;17.00;5.45;;;;;;;5.62;85.91;101811.91;4978731;28;20038;-79
2021/05/08 06:00:19;;;;;;;14.75;5.05;;;;;;;5.72;85.55;101807.84;4996004;28;20113;-79
2021/05/08 06:02:45;;;;;;;12.48;5.13;;;;;;;5.93;83.43;101808.34;4996475;28;20129;-78
2021/05/08 06:05:10;;;;;;;18.33;5.07;;;;;;;5.96;83.90;101803.00;5013715;28;20125;-78
2021/05/08 06:07:36;;;;;;;16.33;4.93;;;;;;;6.12;84.02;101804.69;4997438;28;20121;-80
2021/05/08 06:10:04;;;;;;;20.00;5.28;;;;;;;6.31;82.45;101802.69;4993280;28;20134;-80
2021/05/08 06:12:30;;;;;;;16.88;4.57;;;;;;;6.39;82.69;101810.84;4996428;28;20061;-79
2021/05/08 06:14:56;;;;;;;10.60;4.65;;;;;;;6.54;82.02;101800.44;4989827;28;20504;-80
2021/05/08 06:17:21;;;;;;;12.02;3.78;;;;;;;6.68;81.80;101808.22;4996386;28;20104;-80
2021/05/08 06:19:47;;;;;;;17.83;3.92;;;;;;;6.90;79.96;101809.50;4991219;28;20164;-77
2021/05/08 06:22:12;;;;;;;17.10;4.25;;;;;;;6.94;80.12;101817.03;4996928;28;20441;-80
2021/05/08 06:24:38;;;;;;;17.80;3.92;;;;;;;7.00;79.78;101815.81;5008995;28;20060;-78
2021/05/08 06:27:04;;;;;;;10.05;3.58;;;;;;;7.02;80.20;101819.16;4981987;28;20076;-79
2021/05/08 06:29:29;;;;;;;17.02;3.50;;;;;;;7.03;78.45;101818.25;5011226;28;20049;-79
2021/05/08 06:31:55;;;;;;;15.43;3.58;;;;;;;7.22;78.19;101818.72;4995658;28;20053;-80
2021/05/08 06:34:20;;;;;;;15.63;4.05;;;;;;;7.17;77.61;101814.75;5011966;28;20034;-81
2021/05/08 06:36:46;;;;;;;16.95;3.78;;;;;;;7.40;77.93;101821.94;4996730;28;20072;-77
2021/05/08 06:39:11;;;;;;;12.77;3.28;;;;;;;7.55;75.71;101820.13;5011281;28;20049;-79
2021/05/08 06:41:37;;;;;;;13.02;3.10;;;;;;;7.58;76.28;101830.34;5008749;28;20050;-82
2021/05/08 06:44:03;;;;;;;18.25;3.42;;;;;;;7.74;75.37;101829.31;5003567;28;20104;-80
2021/05/08 06:46:29;;;;;;;12.20;3.28;;;;;;;7.98;77.52;101824.25;5006886;28;20037;-80
2021/05/08 06:48:54;;;;;;;14.82;3.60;;;;;;;8.02;73.69;101815.25;4974978;28;20061;-80
2021/05/08 06:51:20;;;;;;;13.07;3.25;;;;;;;8.05;73.04;101819.44;5019508;28;20495;-79
2021/05/08 06:53:45;;;;;;;18.75;3.40;;;;;;;8.07;73.53;101821.00;4978654;28;20053;-84
2021/05/08 06:56:11;;;;;;;10.38;2.90;;;;;;;8.10;72.65;101820.81;4988437;28;20473;-81
2021/05/08 06:58:39;;;;;;;18.92;3.85;;;;;;;7.86;72.85;101825.91;4996408;28;20922;-80
2021/05/08 07:01:05;;;;;;;11.20;2.88;;;;;;;7.80;75.05;101832.38;4992356;28;20046;-82
2021/05/08 07:03:30;;;;;;;11.35;2.92;;;;;;;7.80;75.44;101823.72;5006073;28;20049;-81
2021/05/08 07:05:56;;;;;;;12.07;3.35;;;;;;;7.80;74.21;101831.56;4994311;28;20041;-78
2021/05/08 07:08:21;;;;;;;12.35;2.83;;;;;;;7.60;73.79;101827.63;4995113;28;20034;-77
2021/05/08 07:10:49;;;;;;;10.50;2.55;;;;;;;7.80;73.44;101835.00;5001123;28;20069;-78
2021/05/08 07:13:15;;;;;;;13.90;2.97;;;;;;;8.15;72.96;101830.94;4976688;28;20121;-79
2021/05/08 07:15:41;;;;;;;12.50;2.83;;;;;;;8.17;71.38;101823.84;4986202;28;20351;-82
2021/05/08 07:18:08;;;;;;;17.30;2.70;;;;;;;8.28;69.97;101829.16;5027763;28;20050;-77
2021/05/08 07:20:35;;;;;;;14.00;3.08;;;;;;;8.28;70.77;101831.78;5010856;28;20411;-80
2021/05/08 07:23:01;;;;;;;14.85;2.88;;;;;;;8.63;71.34;101828.56;4994459;28;20033;-79
2021/05/08 07:25:27;;;;;;;17.10;2.83;;;;;;;8.81;68.52;101823.78;4994523;28;20096;-81
2021/05/08 07:27:53;;;;;;;13.13;2.42;;;;;;;8.76;67.37;101824.13;5019074;28;20133;-80
2021/05/08 07:30:19;;;;;;;11.02;2.88;;;;;;;8.81;68.51;101830.81;5009855;28;20053;-78
2021/05/08 07:32:45;;;;;;;15.38;2.17;;;;;;;8.99;67.12;101833.91;4993913;28;20057;-79
2021/05/08 07:35:11;;;;;;;11.55;2.33;;;;;;;9.09;64.80;101829.69;4992222;28;20493;-79
2021/05/08 07:37:37;;;;;;;10.05;2.47;;;;;;;9.37;66.21;101831.13;5007806;28;20050;-78
2021/05/08 07:40:03;;;;;;;10.65;1.95;;;;;;;9.27;64.84;101822.31;4984908;28;20492;-77
2021/05/08 07:42:29;;;;;;;10.48;1.90;;;;;;;9.39;61.99;101831.03;5010664;28;20057;-79
2021/05/08 07:44:54;;;;;;;11.68;2.10;;;;;;;9.60;62.88;101826.81;5008534;28;20042;-79
2021/05/08 07:47:20;;;;;;;6.78;1.80;;;;;;;9.71;62.17;101829.47;4978460;28;20057;-80
2021/05/08 07:49:45;;;;;;;13.13;2.60;;;;;;;9.83;62.23;101822.50;4978294;28;20106;-78
2021/05/08 07:52:11;;;;;;;11.68;2.10;;;;;;;9.99;62.55;101822.19;4995351;28;20104;-81
2021/05/08 07:54:37;;;;;;;13.93;2.60;;;;;;;10.39;61.85;101827.00;5007627;28;20126;-79
2021/05/08 07:57:03;;;;;;;10.32;2.20;;;;;;;10.54;58.90;101817.13;5019776;28;20064;-79
2021/05/08 07:59:28;;;;;;;11.45;2.00;;;;;;;10.61;59.88;101813.06;5012345;28;20045;-78
2021/05/08 08:01:54;;;;;;;11.57;2.50;;;;;;;10.58;58.75;101812.47;5012150;28;20592;-79
2021/05/08 08:04:20;;;;;;;8.15;2.05;;;;;;;10.26;60.82;101811.34;4994879;28;20558;-76
2021/05/08 08:06:45;;;;;;;12.57;2.45;;;;;;;10.32;61.54;101815.31;5013223;28;20073;-79
2021/05/08 08:09:11;;;;;;;10.75;2.17;;;;;;;10.07;62.36;101811.09;4998889;28;20045;-77
2021/05/08 08:11:37;;;;;;;12.10;2.25;;;;;;;10.20;62.43;101809.22;4998378;28;20053;-78
2021/05/08 08:14:03;;;;;;;10.13;1.90;;;;;;;10.46;60.27;101803.78;4991064;28;20101;-81
2021/05/08 08:16:32;;;;;;;13.20;2.22;;;;;;;10.57;59.51;101806.41;5001541;28;20033;-81
2021/05/08 08:18:57;;;;;;;7.30;1.85;;;;;;;10.62;59.30;101790.28;5017053;28;20048;-81
2021/05/08 08:21:23;;;;;;;10.00;2.03;;;;;;;10.71;57.47;101792.19;5000944;28;20030;-81
2021/05/08 08:23:48;;;;;;;11.95;2.63;;;;;;;10.83;59.49;101796.47;5001972;28;20045;-81
2021/05/08 08:26:14;;;;;;;6.13;2.20;;;;;;;10.89;57.41;101795.16;5040526;28;20492;-77
2021/05/08 08:28:40;;;;;;;9.38;2.17;;;;;;;10.88;57.31;101801.34;5008904;28;20042;-78
2021/05/08 08:31:06;;;;;;;7.68;2.00;;;;;;;10.78;55.13;101800.41;4995862;28;20488;-79
2021/05/08 08:33:32;;;;;;;7.57;1.98;;;;;;;10.80;59.40;101801.94;4995651;28;20050;-78
2021/05/08 08:35:58;;;;;;;11.05;1.90;;;;;;;10.94;57.93;101800.00;5005300;28;20416;-82
2021/05/08 08:38:24;;;;;;;5.07;1.80;;;;;;;11.12;57.59;101802.97;5004800;28;20058;-79
2021/05/08 08:40:49;;;;;;;10.20;1.95;;;;;;;11.28;56.85;101803.34;5004226;28;20558;-80
2021/05/08 08:43:15;;;;;;;13.52;2.92;;;;;;;11.25;54.25;101795.75;4994184;28;20066;-78
2021/05/08 08:45:42;;;;;;;6.53;1.70;;;;;;;11.45;56.70;101796.72;4986675;28;20041;-78
2021/05/08 08:48:08;;;;;;;9.65;2.22;;;;;;;11.46;54.94;101795.78;5017408;28;20579;-78
2021/05/08 08:50:37;;;;;;;10.02;1.92;;;;;;;11.37;54.16;101799.16;5001170;28;20051;-80
2021/05/08 08:53:04;;;;;;;8.10;1.85;;;;;;;11.55;54.68;101802.91;4981269;28;20053;-78
2021/05/08 08:55:32;;;;;;;8.45;1.80;;;;;;;11.43;52.41;101796.88;4994846;28;20084;-83
2021/05/08 08:58:01;;;;;;;11.38;2.13;;;;;;;11.48;54.54;101797.31;4999418;28;20518;-78
2021/05/08 09:00:27;;;;;;;9.07;1.73;;;;;;;11.68;53.63;101798.28;4997447;28;20121;-79
2021/05/08 09:02:52;;;;;;;6.60;1.80;;;;;;;11.67;54.08;101793.16;4998103;28;20125;-80
2021/05/08 09:05:23;;;;;;;5.43;1.60;;;;;;;11.70;52.67;101798.16;5002838;28;20053;-80
2021/05/08 09:07:50;;;;;;;8.63;1.92;;;;;;;11.82;53.53;101789.25;5002825;28;20042;-81
2021/05/08 09:10:31;;;;;;;9.95;1.85;;;;;;;11.82;50.52;101789.25;5003859;28;20041;-78
2021/05/08 09:13:02;;;;;;;4.78;1.42;;;;;;;11.99;53.22;101789.66;4995487;28;20049;-80
2021/05/08 09:15:29;;;;;;;7.95;1.88;;;;;;;12.15;52.91;101795.28;4992040;28;20046;-80
2021/05/08 09:17:55;;;;;;;7.78;2.08;;;;;;;11.97;53.14;101786.31;5015055;28;20042;-79
2021/05/08 09:20:21;;;;;;;9.00;1.70;;;;;;;11.84;52.63;101781.22;5030346;28;20050;-80
2021/05/08 09:22:48;;;;;;;9.10;1.90;;;;;;;11.86;51.49;101781.94;4981016;28;20116;-79
2021/05/08 09:25:16;;;;;;;7.65;1.48;;;;;;;11.87;53.58;101789.69;5009513;28;20057;-79
2021/05/08 09:27:44;;;;;;;6.30;1.45;;;;;;;11.92;52.62;101780.63;5026181;28;20136;-80
2021/05/08 09:30:13;;;;;;;7.40;1.67;;;;;;;12.07;50.15;101782.78;5010456;28;20087;-78
2021/05/08 09:32:45;;;;;;;8.35;1.77;;;;;;;12.20;51.86;101772.03;4993535;28;20131;-79
2021/05/08 09:35:14;;;;;;;8.48;1.92;;;;;;;12.25;49.36;101771.66;4978421;28;20043;-79
2021/05/08 09:37:39;;;;;;;8.90;1.92;;;;;;;12.15;53.39;101771.63;4991498;28;20065;-81
2021/05/08 09:40:26;;;;;;;4.40;1.40;;;;;;;12.30;50.93;101764.19;5015806;28;20049;-79
2021/05/08 09:42:56;;;;;;;3.88;1.70;;;;;;;12.75;50.01;101755.88;5007209;28;20038;-77
2021/05/08 09:45:24;;;;;;;9.10;2.00;;;;;;;12.81;50.91;101759.78;4993922;28;20053;-79
2021/05/08 09:47:51;;;;;;;5.60;1.70;;;;;;;12.52;49.83;101750.00;4994621;28;20393;-80
2021/05/08 09:50:24;;;;;;;5.63;1.92;;;;;;;12.75;50.26;101750.63;4994720;23;20049;-78
2021/05/08 09:52:55;;;;;;;7.68;1.77;;;;;;;12.76;47.54;101754.91;4990368;28;20053;-81
2021/05/08 09:55:23;;;;;;;7.93;1.92;;;;;;;12.87;48.80;101753.13;5007616;28;20437;-80
2021/05/08 09:58:06;;;;;;;6.25;1.73;;;;;;;13.00;49.05;101745.78;4990107;28;20042;-79
2021/05/08 10:00:38;;;;;;;;;;;;;;;13.15;49.92;101740.94;4996639;28;20065;-78
2021/05/08 10:03:07;;;;;;;7.30;2.30;;;;;;;13.43;48.58;101748.00;5005745;28;19917;-80
2021/05/08 10:05:33;;;;;;;7.00;1.92;;;;;;;13.37;47.10;101747.72;5008834;28;20187;-79
2021/05/08 10:07:59;;;;;;;6.22;1.80;;;;;;;13.21;47.59;101730.66;5009577;28;20044;-82
2021/05/08 10:10:25;;;;;;;4.05;1.70;;;;;;;13.71;48.88;101734.06;5015651;28;20859;-80
2021/05/08 10:12:51;;;;;;;9.52;2.20;;;;;;;13.19;48.46;101732.59;4976933;28;20675;-79
2021/05/08 10:15:17;;;;;;;4.72;1.70;;;;;;;12.82;47.01;101738.53;4982098;28;20038;-75
2021/05/08 10:17:46;;;;;;;7.05;1.95;;;;;;;12.92;49.67;101730.69;4977879;28;20069;-81
2021/05/08 10:20:13;;;;;;;6.35;1.70;;;;;;;12.99;47.60;101733.56;4977223;28;20046;-79
2021/05/08 10:22:42;;;;;;;9.25;2.10;;;;;;;12.75;46.95;101729.56;4993989;28;20420;-79
2021/05/08 10:25:09;;;;;;;5.03;1.80;;;;;;;12.50;48.98;101727.41;4977557;28;20110;-78
2021/05/08 10:27:34;;;;;;;6.55;1.70;;;;;;;12.67;49.26;101732.00;4981805;28;20074;-78
2021/05/08 10:30:02;;;;;;;6.22;2.20;;;;;;;12.77;47.29;101727.63;4986436;28;20139;-81
2021/05/08 10:32:29;;;;;;;9.05;2.13;;;;;;;13.10;46.20;101727.34;4991112;28;20042;-79
2021/05/08 10:34:59;;;;;;;5.63;2.00;;;;;;;13.27;45.58;101720.53;4990438;28;20571;-79
2021/05/08 10:37:25;;;;;;;4.50;1.90;;;;;;;13.21;44.83;101716.66;5012633;28;20069;-80
2021/05/08 10:40:00;;;;;;;5.72;2.15;;;;;;;13.04;46.29;101710.28;4999341;28;20458;-78
2021/05/08 10:42:33;;;;;;;8.13;2.03;;;;;;;13.42;45.77;101719.16;4992494;28;20109;-79
2021/05/08 10:44:59;;;;;;;;;;;;;;;13.70;46.29;101709.53;4996577;28;20479;-80
2021/05/08 10:47:24;;;;;;;5.00;1.83;;;;;;;13.64;44.97;101704.84;5012397;28;19924;-80
2021/05/08 10:50:28;;;;;;;8.05;2.55;;;;;;;13.59;44.08;101707.06;5004220;28;20416;-81
2021/05/08 10:53:01;;;;;;;6.60;2.13;;;;;;;13.32;47.18;101703.38;4992155;28;20074;-79
2021/05/08 10:55:53;;;;;;;8.95;2.78;;;;;;;12.67;43.77;101705.69;4979523;28;20037;-79
2021/05/08 10:58:21;;;;;;;8.35;2.40;;;;;;;12.48;45.53;101703.88;4994023;28;20228;-78
2021/05/08 11:00:48;;;;;;;5.20;2.10;;;;;;;13.22;44.95;101706.00;4986413;28;20060;-79
2021/05/08 11:03:15;;;;;;;6.43;2.35;;;;;;;13.73;42.59;101706.63;4992435;28;20127;-81
2021/05/08 11:05:54;;;;;;;4.80;2.05;;;;;;;13.82;44.35;101695.22;4993049;28;20073;-78
2021/05/08 11:08:40;;;;;;;5.10;2.10;;;;;;;13.29;45.26;101698.34;4992065;28;20053;-77
2021/05/08 11:11:08;;;;;;;7.75;2.38;;;;;;;13.33;45.16;101701.56;4987980;28;20102;-80
2021/05/08 11:13:40;;;;;;;7.07;2.13;;;;;;;13.43;44.32;101702.41;4992445;28;20034;-81
2021/05/08 11:16:06;;;;;;;7.50;2.25;;;;;;;13.38;44.73;101694.91;5009207;28;20082;-81
2021/05/08 11:18:34;;;;;;;5.72;2.35;;;;;;;13.03;41.18;101692.81;4988015;28;20076;-81
2021/05/08 11:21:02;;;;;;;7.30;2.35;;;;;;;12.74;42.05;101693.66;4997685;28;20424;-79
2021/05/08 11:23:41;;;;;;;4.28;2.20;;;;;;;12.76;41.34;101685.63;4984639;28;20126;-79
2021/05/08 11:26:26;;;;;;;6.10;2.13;;;;;;;13.49;42.35;101683.38;5002081;28;20472;-80